Main page
METAR-TAF:

METAR-TAF

Airports :

Benbecula Airport

Benbecula, Scotland

latitude: 57-28N, longitude: 007-22W, elevation: 6 m

Current weather observation

The report was made 31 minutes ago, at 05:20 UTC
Wind 5 kt from the North/Northeast
Temperature 13°C
Humidity 100%
Pressure 1017 hPa
Visibility 10 km or more

METAR: EGPL 250520Z AUTO 02005KT 9999 OVC006/// 13/13 Q1017

Time: 06:51 (05:51 UTC)

Forecast

The report was made 54 minutes ago, at 04:57 UTC
Forecast valid from 25 at 06 UTC to 25 at 15 UTC
Wind 4 kt from variable directions
Visibility 10 km or more
Broken clouds at a height of 800 ft
Becoming
from 25 at 06 UTC to 25 at 09 UTC
Scattered clouds at a height of 800 ft
Temporary
from 25 at 06 UTC to 25 at 09 UTC
Visibility: 6000 m
Broken clouds at a height of 400 ft

TAF: EGPL 250457Z 2506/2515 VRB04KT 9999 BKN008 BECMG 2506/2509 SCT008 TEMPO 2506/2509 6000 BKN004

Weather observations and forecasts of more than 4000 airports (METAR and TAF reports).

The available stations are represented by yellow and red dots on the map.

Hover mouse over dot to see the name of the station.

Then click to see weather observations and forecasts.

To change the map : click on the green buttons with a black cross to zoom in, on the green button with a dash to zoom out, or on the green arrows for adjacent maps.


METAR-TAF: